Time;durP1;ratioP1;P1;durP2;ratioP2;P2;SDS_P1;SDS_P2;PMS_P1;PMS_P2;Temp;Humidity;BMP_temperature;BMP_pressure;BME280_temperature;BME280_humidity;BME280_pressure;Samples;Min_cycle;Max_cycle;Signal;HPM_P1;HPM_P2
2021/01/30 00:00:46;;;;;;;3.63;1.33;;;8.10;99.90;;;;;;4915560;29;20219;-89
2021/01/30 00:03:13;;;;;;;4.60;1.77;;;8.20;99.90;;;;;;4929139;29;20206;-86
2021/01/30 00:05:39;;;;;;;2.90;1.50;;;8.20;99.90;;;;;;4932670;29;20275;-88
2021/01/30 00:08:06;;;;;;;3.67;1.47;;;8.20;99.90;;;;;;4915802;29;20563;-88
2021/01/30 00:10:32;;;;;;;2.07;1.60;;;8.20;99.90;;;;;;4932619;29;20491;-87
2021/01/30 00:12:58;;;;;;;2.30;1.17;;;8.20;99.90;;;;;;4903391;29;20447;-87
2021/01/30 00:15:26;;;;;;;1.13;1.03;;;8.20;99.90;;;;;;4928980;29;20455;-88
2021/01/30 00:17:54;;;;;;;2.80;1.40;;;8.30;99.90;;;;;;4916921;29;20810;-89
2021/01/30 00:20:25;;;;;;;2.60;1.30;;;8.20;99.90;;;;;;4916366;29;20475;-89
2021/01/30 00:22:52;;;;;;;4.03;1.70;;;8.10;99.90;;;;;;4918986;29;20520;-87
2021/01/30 00:25:23;;;;;;;1.87;1.60;;;8.00;99.90;;;;;;4935263;29;20463;-87
2021/01/30 00:27:49;;;;;;;2.00;1.67;;;7.90;99.90;;;;;;4917687;29;20443;-89
2021/01/30 00:30:18;;;;;;;3.87;1.50;;;7.90;99.90;;;;;;4916336;29;20475;-89
2021/01/30 00:32:44;;;;;;;6.13;2.67;;;7.90;99.90;;;;;;4931048;29;20422;-88
2021/01/30 00:35:14;;;;;;;5.00;1.60;;;7.80;99.90;;;;;;4931648;29;20908;-89
2021/01/30 00:37:40;;;;;;;1.53;1.40;;;7.90;99.90;;;;;;4912289;29;20267;-90
2021/01/30 00:40:10;;;;;;;2.43;1.43;;;7.80;99.90;;;;;;4934563;29;20845;-87
2021/01/30 00:42:38;;;;;;;2.80;1.30;;;7.90;99.90;;;;;;4915501;29;20466;-87
2021/01/30 00:45:08;;;;;;;6.30;1.90;;;7.90;99.90;;;;;;4931078;29;21040;-87
2021/01/30 00:47:34;;;;;;;2.90;1.63;;;8.00;99.90;;;;;;4926329;29;20966;-88
2021/01/30 00:50:00;;;;;;;3.23;1.00;;;8.00;99.90;;;;;;4914519;29;20516;-85
2021/01/30 00:52:25;;;;;;;2.90;1.23;;;8.10;99.90;;;;;;4915742;29;20192;-86
2021/01/30 00:54:52;;;;;;;3.10;1.60;;;8.10;99.90;;;;;;4926194;29;20227;-87
2021/01/30 00:57:21;;;;;;;1.87;1.30;;;8.10;99.90;;;;;;4898913;29;20560;-87
2021/01/30 00:59:50;;;;;;;2.17;1.50;;;8.10;99.90;;;;;;4924840;29;20842;-87
2021/01/30 01:02:16;;;;;;;1.93;1.60;;;8.10;99.90;;;;;;4926648;29;20813;-88
2021/01/30 01:04:45;;;;;;;1.50;1.40;;;8.10;99.90;;;;;;4929979;29;20474;-89
2021/01/30 01:07:13;;;;;;;3.37;1.60;;;8.00;99.90;;;;;;4916507;29;20192;-85
2021/01/30 01:09:39;;;;;;;5.30;1.50;;;8.00;99.90;;;;;;4912052;29;20539;-88
2021/01/30 01:12:05;;;;;;;3.97;1.30;;;8.00;99.90;;;;;;4935244;29;20442;-89
2021/01/30 01:14:31;;;;;;;3.83;1.27;;;8.00;99.90;;;;;;4934527;29;20455;-88
2021/01/30 01:16:56;;;;;;;2.47;1.27;;;8.00;99.90;;;;;;4930919;29;20193;-89
2021/01/30 01:19:22;;;;;;;1.50;1.37;;;7.90;99.90;;;;;;4918083;29;20243;-88
2021/01/30 01:21:52;;;;;;;3.23;1.50;;;7.90;99.90;;;;;;4927728;29;20208;-88
2021/01/30 01:24:22;;;;;;;1.40;1.30;;;7.90;99.90;;;;;;4914387;29;20220;-88
2021/01/30 01:26:49;;;;;;;3.70;1.40;;;7.90;99.90;;;;;;4930059;29;20900;-88
2021/01/30 01:29:18;;;;;;;2.27;1.10;;;8.00;99.90;;;;;;4919894;29;20451;-90
2021/01/30 01:31:50;;;;;;;2.37;1.27;;;8.00;99.90;;;;;;4930984;29;20597;-88
2021/01/30 01:34:16;;;;;;;3.73;1.23;;;8.00;99.90;;;;;;4919442;29;20623;-88
2021/01/30 01:36:42;;;;;;;2.60;1.00;;;8.00;99.90;;;;;;4931507;29;20486;-88
2021/01/30 01:39:08;;;;;;;5.83;1.27;;;8.10;99.90;;;;;;4939184;29;20435;-87
2021/01/30 01:41:33;;;;;;;3.50;1.33;;;8.10;99.90;;;;;;4904622;29;20210;-87
2021/01/30 01:43:59;;;;;;;4.97;1.40;;;8.10;99.90;;;;;;4917935;29;20554;-86
2021/01/30 01:46:38;;;;;;;1.10;1.00;;;8.10;99.90;;;;;;4905364;29;20192;-87
2021/01/30 01:49:18;;;;;;;2.63;1.40;;;8.20;99.90;;;;;;4915633;29;20291;-87
2021/01/30 01:52:05;;;;;;;4.50;1.30;;;8.20;99.90;;;;;;4933265;29;20496;-86
2021/01/30 01:54:33;;;;;;;2.97;1.47;;;8.20;99.90;;;;;;4931331;29;20490;-87
2021/01/30 01:57:06;;;;;;;3.13;1.50;;;8.20;99.90;;;;;;4918599;29;20836;-89
2021/01/30 01:59:32;;;;;;;1.63;1.53;;;8.20;99.90;;;;;;4932387;29;20445;-87
2021/01/30 02:01:58;;;;;;;3.67;1.33;;;8.10;99.90;;;;;;4919235;29;20450;-87
2021/01/30 02:04:25;;;;;;;1.40;1.30;;;8.10;99.90;;;;;;4915708;29;20510;-86
2021/01/30 02:06:52;;;;;;;2.30;1.33;;;8.10;99.90;;;;;;4933604;29;20788;-86
2021/01/30 02:09:22;;;;;;;1.10;0.90;;;8.10;99.90;;;;;;4917827;29;20483;-87
2021/01/30 02:12:14;;;;;;;1.70;1.30;;;8.00;99.90;;;;;;4931961;29;20436;-87
2021/01/30 02:14:44;;;;;;;1.83;1.30;;;8.10;99.90;;;;;;4933437;28;20921;-87
2021/01/30 02:17:15;;;;;;;2.47;1.30;;;8.00;99.90;;;;;;4934507;29;20428;-87
2021/01/30 02:20:11;;;;;;;2.30;1.37;;;8.00;99.90;;;;;;4918851;29;20435;-89
2021/01/30 02:22:45;;;;;;;1.40;1.17;;;7.90;99.90;;;;;;4935747;29;20575;-86
2021/01/30 02:25:19;;;;;;;2.87;1.13;;;7.90;99.90;;;;;;4936034;29;20487;-89
2021/01/30 02:28:25;;;;;;;6.00;1.90;;;7.90;99.90;;;;;;4936809;29;20432;-87
2021/01/30 02:31:10;;;;;;;1.30;1.20;;;7.80;99.90;;;;;;4932861;29;20451;-86
2021/01/30 02:34:01;;;;;;;1.70;1.37;;;7.70;99.90;;;;;;4931722;29;20443;-86
2021/01/30 02:36:38;;;;;;;3.00;1.50;;;7.70;99.90;;;;;;4933966;29;20424;-88
2021/01/30 02:39:19;;;;;;;1.20;1.10;;;7.60;99.90;;;;;;4929532;29;20439;-87
2021/01/30 02:42:00;;;;;;;2.30;1.40;;;7.50;99.90;;;;;;4930656;29;20440;-87
2021/01/30 02:44:30;;;;;;;1.37;1.27;;;7.50;99.90;;;;;;4937201;28;20478;-86
2021/01/30 02:46:56;;;;;;;3.60;1.50;;;7.60;99.90;;;;;;4933251;29;20831;-89
2021/01/30 02:49:45;;;;;;;1.30;1.20;;;7.60;99.90;;;;;;4937250;29;20467;-88
2021/01/30 02:52:23;;;;;;;6.03;1.63;;;7.60;99.90;;;;;;4935605;29;20820;-86
2021/01/30 02:54:54;;;;;;;2.17;1.50;;;7.60;99.90;;;;;;4930642;28;20466;-89
2021/01/30 02:57:22;;;;;;;1.83;1.50;;;7.50;99.90;;;;;;4930060;29;20958;-85
2021/01/30 02:59:51;;;;;;;2.13;1.40;;;7.60;99.90;;;;;;4930427;29;20534;-87
2021/01/30 03:02:23;;;;;;;1.80;1.30;;;7.60;99.90;;;;;;4918143;29;20456;-87
2021/01/30 03:04:53;;;;;;;2.90;1.47;;;7.60;99.90;;;;;;4930738;29;20463;-87
2021/01/30 03:07:54;;;;;;;3.33;1.37;;;7.60;99.90;;;;;;4916102;29;20448;-86
2021/01/30 03:10:49;;;;;;;1.83;1.20;;;7.60;99.90;;;;;;4914258;29;20478;-87
2021/01/30 03:13:27;;;;;;;2.03;1.00;;;7.50;99.90;;;;;;4929834;29;20427;-88
2021/01/30 03:16:01;;;;;;;2.13;1.50;;;7.50;99.90;;;;;;4929442;29;21485;-89
2021/01/30 03:18:36;;;;;;;2.70;1.37;;;7.50;99.90;;;;;;4915794;29;20523;-87
2021/01/30 03:21:12;;;;;;;1.63;1.53;;;7.40;99.90;;;;;;4930876;29;20451;-88
2021/01/30 03:23:40;;;;;;;1.90;1.40;;;7.40;99.90;;;;;;4929621;29;20775;-88
2021/01/30 03:26:12;;;;;;;1.20;1.10;;;7.40;99.90;;;;;;4913934;29;20428;-88
2021/01/30 03:28:39;;;;;;;2.07;1.23;;;7.40;99.90;;;;;;4928278;29;20472;-89
2021/01/30 03:31:04;;;;;;;3.50;1.43;;;7.40;99.90;;;;;;4924902;29;20448;-91
2021/01/30 03:33:30;;;;;;;4.37;1.20;;;7.40;99.90;;;;;;4931080;28;20473;-90
2021/01/30 03:35:56;;;;;;;3.37;1.27;;;7.40;99.90;;;;;;4893440;29;20229;-87
2021/01/30 03:38:21;;;;;;;4.50;1.50;;;7.40;99.90;;;;;;4927313;29;20263;-88
2021/01/30 03:40:49;;;;;;;1.30;1.20;;;7.40;99.90;;;;;;4931214;29;20255;-88
2021/01/30 03:43:16;;;;;;;1.40;1.20;;;7.40;99.90;;;;;;4929306;29;20206;-91
2021/01/30 03:45:41;;;;;;;1.13;1.00;;;7.40;99.90;;;;;;4926720;29;20443;-86
2021/01/30 03:48:08;;;;;;;1.20;1.00;;;7.40;99.90;;;;;;4929816;29;20459;-87
2021/01/30 03:50:34;;;;;;;3.27;1.43;;;7.40;99.90;;;;;;4913174;29;20220;-87
2021/01/30 03:53:01;;;;;;;7.23;1.30;;;7.40;99.90;;;;;;4911980;29;20444;-86
2021/01/30 03:55:26;;;;;;;6.50;1.47;;;7.40;99.90;;;;;;4926271;29;20451;-87
2021/01/30 03:57:52;;;;;;;1.83;1.23;;;7.40;99.90;;;;;;4925744;29;20467;-88
2021/01/30 04:00:22;;;;;;;3.70;1.20;;;7.50;99.90;;;;;;4897522;29;20204;-87
2021/01/30 04:02:48;;;;;;;2.60;1.27;;;7.50;99.90;;;;;;4926031;28;20665;-90
2021/01/30 04:05:18;;;;;;;2.70;1.40;;;7.50;99.90;;;;;;4911681;29;20467;-90
2021/01/30 04:07:44;;;;;;;2.90;1.20;;;7.50;99.90;;;;;;4925364;29;22213;-88
2021/01/30 04:10:13;;;;;;;7.73;1.60;;;7.50;99.90;;;;;;4922888;29;20488;-89
2021/01/30 04:12:40;;;;;;;1.60;1.00;;;7.50;99.90;;;;;;4908924;29;20451;-86
2021/01/30 04:15:07;;;;;;;4.10;1.57;;;7.50;99.90;;;;;;4925093;29;20484;-86
2021/01/30 04:17:32;;;;;;;2.30;1.60;;;7.50;99.90;;;;;;4912979;29;20851;-86
2021/01/30 04:19:58;;;;;;;3.57;1.70;;;7.50;99.90;;;;;;4926261;29;20877;-86
2021/01/30 04:22:24;;;;;;;1.90;1.33;;;7.50;99.90;;;;;;4928306;29;20311;-88
2021/01/30 04:24:49;;;;;;;2.50;1.43;;;7.50;99.90;;;;;;4911698;29;20215;-87
2021/01/30 04:27:15;;;;;;;3.07;2.40;;;7.60;99.90;;;;;;4912311;29;20192;-90
2021/01/30 04:29:44;;;;;;;3.77;1.80;;;7.60;99.90;;;;;;4930118;29;20710;-87
2021/01/30 04:32:10;;;;;;;4.00;1.60;;;7.50;99.90;;;;;;4925830;29;20670;-88
2021/01/30 04:34:36;;;;;;;4.23;1.80;;;7.60;99.90;;;;;;4927610;28;20451;-89
2021/01/30 04:37:02;;;;;;;2.20;1.70;;;7.60;99.90;;;;;;4927662;29;20637;-87
2021/01/30 04:39:28;;;;;;;8.03;2.70;;;7.60;99.90;;;;;;4926502;29;20191;-88
2021/01/30 04:42:28;;;;;;;2.40;1.77;;;7.60;99.90;;;;;;4910806;29;20449;-86
2021/01/30 04:45:09;;;;;;;5.60;2.00;;;7.60;99.90;;;;;;4920453;29;20305;-87
2021/01/30 04:47:58;;;;;;;6.37;2.20;;;7.60;99.90;;;;;;4924847;29;20475;-88
2021/01/30 04:50:59;;;;;;;2.40;1.50;;;7.60;99.90;;;;;;4898902;29;21001;-87
2021/01/30 04:53:43;;;;;;;2.63;1.40;;;7.60;99.90;;;;;;4928645;29;20479;-88
2021/01/30 04:56:36;;;;;;;6.63;1.10;;;7.70;99.90;;;;;;4930554;29;20457;-85
2021/01/30 04:59:06;;;;;;;7.17;1.57;;;7.70;99.90;;;;;;4914356;29;20505;-89
2021/01/30 05:01:49;;;;;;;3.90;1.60;;;7.70;99.90;;;;;;4930872;29;20442;-88
2021/01/30 05:04:26;;;;;;;2.70;1.57;;;7.70;99.90;;;;;;4931507;29;20713;-88
2021/01/30 05:06:51;;;;;;;9.23;1.50;;;7.70;99.90;;;;;;4931746;29;20820;-86
2021/01/30 05:09:37;;;;;;;7.30;1.40;;;7.70;99.90;;;;;;4932329;29;20467;-89
2021/01/30 05:12:09;;;;;;;3.87;1.30;;;7.70;99.90;;;;;;4927158;29;20351;-87
2021/01/30 05:14:43;;;;;;;2.27;1.17;;;7.70;99.90;;;;;;4916047;29;20797;-87
2021/01/30 05:17:19;;;;;;;4.60;1.60;;;7.70;99.90;;;;;;4918174;29;20493;-87
2021/01/30 05:19:52;;;;;;;6.40;1.80;;;7.70;99.90;;;;;;4932521;28;20462;-87
2021/01/30 05:22:18;;;;;;;1.70;1.43;;;7.80;99.90;;;;;;4931548;29;20446;-88
2021/01/30 05:24:47;;;;;;;3.27;1.63;;;7.80;99.90;;;;;;4914598;29;20451;-87
2021/01/30 05:27:34;;;;;;;5.27;1.53;;;7.80;99.90;;;;;;4931319;29;20450;-85
2021/01/30 05:30:14;;;;;;;5.00;1.60;;;7.90;99.90;;;;;;4932406;29;20499;-88
2021/01/30 05:33:09;;;;;;;7.73;1.40;;;7.80;99.90;;;;;;4915645;29;20826;-85
2021/01/30 05:35:44;;;;;;;3.77;1.70;;;7.90;99.90;;;;;;4932324;29;20496;-87
2021/01/30 05:38:46;;;;;;;2.90;1.30;;;7.90;99.90;;;;;;4932459;29;20448;-85
2021/01/30 05:41:37;;;;;;;7.73;1.53;;;7.90;99.90;;;;;;4933999;29;20450;-85
2021/01/30 05:44:33;;;;;;;1.07;0.97;;;8.00;99.90;;;;;;4921219;29;20468;-89
2021/01/30 05:46:59;;;;;;;7.27;1.47;;;8.00;99.90;;;;;;4933679;29;20463;-85
2021/01/30 05:49:31;;;;;;;2.27;1.50;;;8.00;99.90;;;;;;4916326;29;20463;-88
2021/01/30 05:52:10;;;;;;;2.90;1.70;;;8.00;99.90;;;;;;4916801;29;20563;-87
2021/01/30 05:54:36;;;;;;;3.07;1.93;;;7.90;99.90;;;;;;4933999;29;20448;-87
2021/01/30 05:57:01;;;;;;;5.63;2.27;;;7.90;99.90;;;;;;4912347;29;20428;-87
2021/01/30 05:59:31;;;;;;;6.33;2.07;;;7.90;99.90;;;;;;4930125;29;20647;-87
2021/01/30 06:02:27;;;;;;;5.43;2.30;;;8.00;99.90;;;;;;4922005;29;20342;-88
2021/01/30 06:04:53;;;;;;;6.60;1.70;;;8.00;99.90;;;;;;4918548;29;20471;-86
2021/01/30 06:07:32;;;;;;;4.60;1.80;;;8.00;99.90;;;;;;4919139;29;20446;-88
2021/01/30 06:10:17;;;;;;;10.80;2.17;;;8.10;99.90;;;;;;4930566;29;20474;-88
2021/01/30 06:12:42;;;;;;;9.47;2.20;;;8.00;99.90;;;;;;4928988;29;20487;-85
2021/01/30 06:15:36;;;;;;;3.73;2.10;;;8.00;99.90;;;;;;4920212;29;20487;-87
2021/01/30 06:18:37;;;;;;;3.10;1.77;;;8.00;99.90;;;;;;4917952;29;20196;-88
2021/01/30 06:21:16;;;;;;;6.70;2.67;;;8.00;99.90;;;;;;4904325;29;20447;-87
2021/01/30 06:24:02;;;;;;;5.30;1.90;;;7.90;99.90;;;;;;4932003;29;20454;-86
2021/01/30 06:26:28;;;;;;;4.10;1.57;;;7.90;99.90;;;;;;4932300;29;20475;-87
2021/01/30 06:29:06;;;;;;;2.83;1.90;;;7.90;99.90;;;;;;4934604;29;20479;-87
2021/01/30 06:31:41;;;;;;;10.53;2.40;;;7.90;99.90;;;;;;4914535;29;20194;-87
2021/01/30 06:34:22;;;;;;;16.53;2.40;;;7.90;99.90;;;;;;4931699;29;20959;-87
2021/01/30 06:36:51;;;;;;;4.27;1.60;;;7.90;99.90;;;;;;4930835;29;20471;-87
2021/01/30 06:39:35;;;;;;;9.50;1.97;;;7.90;99.90;;;;;;4932426;29;20467;-87
2021/01/30 06:42:07;;;;;;;5.20;2.30;;;7.90;99.90;;;;;;4932401;29;20509;-86
2021/01/30 06:44:34;;;;;;;5.30;1.73;;;7.90;99.90;;;;;;4932207;29;20977;-89
2021/01/30 06:47:05;;;;;;;4.70;2.20;;;7.90;99.90;;;;;;4934378;29;20455;-87
2021/01/30 06:49:37;;;;;;;9.77;2.33;;;7.90;99.90;;;;;;4931945;28;20712;-86
2021/01/30 06:52:09;;;;;;;4.13;1.67;;;7.90;99.90;;;;;;4930170;28;20787;-88
2021/01/30 06:54:35;;;;;;;4.37;1.70;;;7.90;99.90;;;;;;4933640;29;20458;-87
2021/01/30 06:57:07;;;;;;;4.67;2.17;;;8.00;99.90;;;;;;4931451;29;20474;-88
2021/01/30 06:59:37;;;;;;;3.13;1.40;;;8.00;99.90;;;;;;4933673;29;20211;-87
2021/01/30 07:02:14;;;;;;;5.50;1.77;;;8.00;99.90;;;;;;4916162;29;21109;-88
2021/01/30 07:05:17;;;;;;;6.00;1.90;;;8.00;99.90;;;;;;4917430;29;20450;-86
2021/01/30 07:08:04;;;;;;;4.50;1.80;;;8.00;99.90;;;;;;4928439;29;20451;-87
2021/01/30 07:10:51;;;;;;;6.20;1.53;;;8.10;99.90;;;;;;4931283;29;20538;-87
2021/01/30 07:13:46;;;;;;;4.93;2.10;;;8.10;99.90;;;;;;4930228;29;20439;-88
2021/01/30 07:16:35;;;;;;;6.83;2.00;;;8.10;99.90;;;;;;4926303;29;21024;-88
2021/01/30 07:19:46;;;;;;;7.40;2.10;;;8.20;99.90;;;;;;4929804;29;21156;-85
2021/01/30 07:22:20;;;;;;;3.30;2.00;;;8.20;99.90;;;;;;4915641;29;20455;-88
2021/01/30 07:25:05;;;;;;;8.30;2.10;;;8.30;99.90;;;;;;4924640;29;20660;-86
2021/01/30 07:27:36;;;;;;;3.40;1.70;;;8.30;99.90;;;;;;4927058;29;20551;-88
2021/01/30 07:30:12;;;;;;;5.53;2.47;;;8.30;99.90;;;;;;4931818;29;20483;-85
2021/01/30 07:32:41;;;;;;;5.03;2.13;;;8.40;99.90;;;;;;4926853;29;20519;-86
2021/01/30 07:35:17;;;;;;;14.70;4.20;;;8.40;99.90;;;;;;4932521;29;21043;-86
2021/01/30 07:37:51;;;;;;;5.47;1.90;;;8.40;99.90;;;;;;4929662;29;20478;-86
2021/01/30 07:40:28;;;;;;;6.10;2.10;;;8.50;99.90;;;;;;4931207;29;20464;-87
2021/01/30 07:43:03;;;;;;;7.17;3.60;;;8.50;99.90;;;;;;4932189;29;20446;-86
2021/01/30 07:45:34;;;;;;;5.50;2.20;;;8.50;99.90;;;;;;4916315;29;20856;-87
2021/01/30 07:48:13;;;;;;;4.27;1.50;;;8.50;99.90;;;;;;4936472;29;20431;-88
2021/01/30 07:50:49;;;;;;;11.00;2.43;;;8.60;99.90;;;;;;4913685;29;20899;-86
2021/01/30 07:53:27;;;;;;;5.93;2.63;;;8.70;99.90;;;;;;4916004;29;20563;-86
2021/01/30 07:56:12;;;;;;;5.40;1.90;;;8.80;99.90;;;;;;4931517;29;20474;-89
2021/01/30 07:58:53;;;;;;;10.83;2.17;;;8.70;99.90;;;;;;4931665;29;20890;-88
2021/01/30 08:02:07;;;;;;;2.70;1.80;;;8.80;99.90;;;;;;4935342;29;20439;-88
2021/01/30 08:04:42;;;;;;;5.13;1.93;;;8.90;99.90;;;;;;4909681;29;20462;-89
2021/01/30 08:07:12;;;;;;;8.87;2.20;;;8.90;99.90;;;;;;4929459;29;20454;-88
2021/01/30 08:10:06;;;;;;;6.77;2.40;;;8.90;99.90;;;;;;4928234;29;20475;-87
2021/01/30 08:12:54;;;;;;;5.17;2.27;;;9.00;99.90;;;;;;4930870;29;20509;-87
2021/01/30 08:15:33;;;;;;;3.77;2.10;;;9.00;99.90;;;;;;4926943;28;20479;-89
2021/01/30 08:18:08;;;;;;;3.47;2.00;;;9.10;99.90;;;;;;4916618;29;20709;-86
2021/01/30 08:20:52;;;;;;;26.03;2.90;;;9.10;99.90;;;;;;4932429;29;20975;-87
2021/01/30 08:24:02;;;;;;;7.40;1.77;;;9.10;99.90;;;;;;4931783;29;20443;-87
2021/01/30 08:26:29;;;;;;;7.83;2.33;;;9.20;99.90;;;;;;4913786;29;21025;-88
2021/01/30 08:29:10;;;;;;;5.13;2.03;;;9.20;99.90;;;;;;4932161;29;20466;-86
2021/01/30 08:31:36;;;;;;;7.70;2.63;;;9.20;99.90;;;;;;4915645;29;20527;-86
2021/01/30 08:34:11;;;;;;;9.50;2.80;;;9.20;99.90;;;;;;4913193;29;20562;-85
2021/01/30 08:36:48;;;;;;;12.10;2.97;;;9.20;99.90;;;;;;4930091;29;20243;-84
2021/01/30 08:39:35;;;;;;;6.40;2.23;;;9.30;99.90;;;;;;4935212;28;20573;-88
2021/01/30 08:42:15;;;;;;;9.13;2.90;;;9.30;99.90;;;;;;4936935;29;20431;-87
2021/01/30 08:44:52;;;;;;;8.60;2.80;;;9.40;99.90;;;;;;4921532;29;20487;-87
2021/01/30 08:47:56;;;;;;;9.53;2.50;;;9.50;99.90;;;;;;4932867;29;20447;-89
2021/01/30 08:50:42;;;;;;;8.80;2.73;;;9.50;99.90;;;;;;4934955;29;20468;-84
2021/01/30 08:53:20;;;;;;;9.00;2.53;;;9.50;99.90;;;;;;4939512;28;20422;-85
2021/01/30 08:56:03;;;;;;;12.27;2.70;;;9.50;99.90;;;;;;4938497;29;20530;-86
2021/01/30 08:58:37;;;;;;;12.73;4.10;;;9.50;99.90;;;;;;4919910;29;20427;-87
2021/01/30 09:01:21;;;;;;;11.63;2.40;;;9.50;99.90;;;;;;4933160;29;20474;-87
2021/01/30 09:03:49;;;;;;;4.03;2.20;;;9.50;99.90;;;;;;4931998;29;20440;-84
2021/01/30 09:06:44;;;;;;;8.10;2.50;;;9.50;99.90;;;;;;4934612;29;21236;-86
2021/01/30 09:09:20;;;;;;;3.80;2.30;;;9.50;99.90;;;;;;4936125;29;20463;-86
2021/01/30 09:12:06;;;;;;;9.90;2.83;;;9.50;99.90;;;;;;4934606;29;20416;-87
2021/01/30 09:14:38;;;;;;;12.17;2.53;;;9.50;99.90;;;;;;4933598;29;20900;-86
2021/01/30 09:17:31;;;;;;;7.53;2.13;;;9.60;99.90;;;;;;4918926;29;20637;-87
2021/01/30 09:20:18;;;;;;;4.87;2.70;;;9.60;99.90;;;;;;4935240;28;20467;-86
2021/01/30 09:23:24;;;;;;;8.20;2.43;;;9.60;99.90;;;;;;4933078;29;20439;-86
2021/01/30 09:26:34;;;;;;;7.23;2.90;;;9.60;99.90;;;;;;4934091;29;20428;-84
2021/01/30 09:29:33;;;;;;;7.20;2.50;;;9.60;99.90;;;;;;4934676;29;20467;-87
2021/01/30 09:32:03;;;;;;;9.33;2.60;;;9.50;99.90;;;;;;4931243;29;20440;-85
2021/01/30 09:34:35;;;;;;;5.50;2.27;;;9.50;99.90;;;;;;4918316;29;20441;-84
2021/01/30 09:37:03;;;;;;;6.67;2.73;;;9.50;99.90;;;;;;4920431;29;21215;-85
2021/01/30 09:39:37;;;;;;;14.53;4.13;;;9.40;99.90;;;;;;4930936;29;20463;-85
2021/01/30 09:42:21;;;;;;;7.13;2.90;;;9.40;99.90;;;;;;4918596;29;20522;-84
2021/01/30 09:45:11;;;;;;;8.77;2.87;;;9.30;99.90;;;;;;4914770;29;20907;-87
2021/01/30 09:47:45;;;;;;;4.50;2.20;;;9.20;99.90;;;;;;4920009;29;20490;-86
2021/01/30 09:50:27;;;;;;;16.53;3.20;;;9.20;99.90;;;;;;4932851;29;20462;-87
2021/01/30 09:53:01;;;;;;;9.60;2.57;;;9.20;99.90;;;;;;4918966;29;20539;-83
2021/01/30 09:55:37;;;;;;;8.20;2.30;;;9.20;99.90;;;;;;4915427;29;20446;-85
2021/01/30 09:58:28;;;;;;;7.47;3.40;;;9.10;99.90;;;;;;4917918;29;21029;-83
2021/01/30 10:01:07;;;;;;;8.50;2.70;;;9.10;99.90;;;;;;4918265;29;20992;-85
2021/01/30 10:03:45;;;;;;;6.27;3.00;;;9.00;99.90;;;;;;4934526;28;20523;-86
2021/01/30 10:06:14;;;;;;;3.63;2.13;;;9.00;99.90;;;;;;4929623;29;21099;-83
2021/01/30 10:08:49;;;;;;;7.17;2.00;;;8.90;99.90;;;;;;4932174;29;20435;-85
2021/01/30 10:11:22;;;;;;;7.43;2.23;;;8.90;99.90;;;;;;4910673;29;20463;-86
2021/01/30 10:13:57;;;;;;;9.03;2.80;;;8.80;99.90;;;;;;4932651;29;20540;-83
2021/01/30 10:16:50;;;;;;;6.30;2.10;;;8.90;99.90;;;;;;4916192;29;20522;-87
2021/01/30 10:19:23;;;;;;;9.43;3.00;;;8.90;99.90;;;;;;4933341;29;20427;-86
2021/01/30 10:22:01;;;;;;;5.60;2.23;;;8.90;99.90;;;;;;4935364;29;20447;-85
2021/01/30 10:24:30;;;;;;;7.03;2.20;;;8.90;99.90;;;;;;4915887;29;20459;-84
2021/01/30 10:27:22;;;;;;;6.50;2.20;;;8.70;99.90;;;;;;4909637;29;20643;-88
2021/01/30 10:29:53;;;;;;;7.00;2.60;;;8.70;99.90;;;;;;4912699;29;20475;-88
2021/01/30 10:32:34;;;;;;;9.90;2.53;;;8.70;99.90;;;;;;4923159;29;20459;-89
2021/01/30 10:35:04;;;;;;;6.50;2.50;;;8.70;99.90;;;;;;4928381;29;20444;-88
2021/01/30 10:37:32;;;;;;;4.80;2.33;;;8.70;99.90;;;;;;4927810;29;20443;-86
2021/01/30 10:40:05;;;;;;;8.10;2.17;;;8.70;99.90;;;;;;4923618;29;20436;-88
2021/01/30 10:42:36;;;;;;;4.20;2.73;;;8.80;99.90;;;;;;4924142;29;20561;-87
2021/01/30 10:45:34;;;;;;;7.23;2.70;;;8.80;99.90;;;;;;4926430;29;20518;-85
2021/01/30 10:48:09;;;;;;;4.60;2.00;;;8.90;99.90;;;;;;4925574;29;20451;-87
2021/01/30 10:50:45;;;;;;;8.90;2.27;;;8.90;99.90;;;;;;4908696;29;20466;-86
2021/01/30 10:53:32;;;;;;;6.13;1.53;;;8.90;99.90;;;;;;4925014;29;20436;-84
2021/01/30 10:55:58;;;;;;;7.50;2.30;;;9.00;99.90;;;;;;4931124;29;20433;-82
2021/01/30 10:58:26;;;;;;;6.93;2.40;;;9.00;99.90;;;;;;4932749;29;20500;-83
2021/01/30 11:01:06;;;;;;;6.60;2.27;;;9.00;99.90;;;;;;4929693;29;20657;-86
2021/01/30 11:04:02;;;;;;;4.97;2.40;;;9.00;99.90;;;;;;4935680;29;20558;-86
2021/01/30 11:06:34;;;;;;;9.80;2.67;;;8.90;99.90;;;;;;4924653;29;21013;-81
2021/01/30 11:09:21;;;;;;;6.23;1.93;;;8.90;99.90;;;;;;4933671;29;20472;-87
2021/01/30 11:11:51;;;;;;;7.83;2.23;;;9.00;99.90;;;;;;4918696;29;20602;-84
2021/01/30 11:14:30;;;;;;;12.10;2.70;;;9.10;99.90;;;;;;4902687;29;20542;-83
2021/01/30 11:17:05;;;;;;;8.53;2.37;;;9.10;99.90;;;;;;4927821;29;20451;-83
2021/01/30 11:19:31;;;;;;;8.27;2.07;;;9.30;99.90;;;;;;4929415;29;20555;-84
2021/01/30 11:22:04;;;;;;;10.67;2.97;;;9.50;99.90;;;;;;4926319;29;20427;-85
2021/01/30 11:24:55;;;;;;;8.07;2.80;;;9.60;99.90;;;;;;4926016;29;20211;-87
2021/01/30 11:27:26;;;;;;;4.30;2.33;;;9.60;99.90;;;;;;4913715;29;20444;-87
2021/01/30 11:29:52;;;;;;;5.83;2.37;;;9.70;99.90;;;;;;4934752;29;20467;-85
2021/01/30 11:32:21;;;;;;;4.63;2.23;;;9.70;99.90;;;;;;4939227;29;20479;-83
2021/01/30 11:34:52;;;;;;;7.23;2.33;;;9.80;99.90;;;;;;4935880;29;20204;-85
2021/01/30 11:37:21;;;;;;;9.30;1.97;;;10.00;99.90;;;;;;4934025;29;20538;-87
2021/01/30 11:39:47;;;;;;;6.87;2.97;;;10.10;99.90;;;;;;4917424;29;20443;-84
2021/01/30 11:42:16;;;;;;;3.60;2.40;;;10.10;99.90;;;;;;4931972;29;20450;-86
2021/01/30 11:44:46;;;;;;;6.03;2.60;;;9.90;99.90;;;;;;4929478;29;20240;-84
2021/01/30 11:47:12;;;;;;;6.50;2.43;;;10.00;99.90;;;;;;4919682;29;20438;-87
2021/01/30 11:49:38;;;;;;;5.70;2.10;;;10.10;99.90;;;;;;4933813;29;20880;-86
2021/01/30 11:52:18;;;;;;;6.03;2.73;;;10.10;99.90;;;;;;4910323;29;20192;-86
2021/01/30 11:54:53;;;;;;;5.97;2.43;;;10.00;99.90;;;;;;4920397;29;20222;-83
2021/01/30 11:57:22;;;;;;;6.40;2.40;;;10.00;99.90;;;;;;4896639;29;20481;-81
2021/01/30 12:00:03;;;;;;;4.23;2.47;;;10.20;99.90;;;;;;4908546;29;20439;-85
2021/01/30 12:02:37;;;;;;;10.27;2.30;;;10.20;99.90;;;;;;4910390;29;20474;-84
2021/01/30 12:05:11;;;;;;;5.17;1.80;;;10.30;99.90;;;;;;4911993;29;20458;-88
2021/01/30 12:07:37;;;;;;;6.63;2.17;;;10.30;99.90;;;;;;4926967;29;20451;-83
2021/01/30 12:10:05;;;;;;;4.80;2.37;;;10.30;99.90;;;;;;4909296;29;20482;-84
2021/01/30 12:12:36;;;;;;;3.40;1.90;;;10.20;99.90;;;;;;4905259;29;20195;-84
2021/01/30 12:15:09;;;;;;;7.40;2.63;;;10.20;99.90;;;;;;4918034;29;20486;-85
2021/01/30 12:17:42;;;;;;;6.50;2.10;;;10.30;99.90;;;;;;4929526;29;20530;-77
2021/01/30 12:20:19;;;;;;;8.87;3.10;;;10.40;99.90;;;;;;4908180;29;20486;-76
2021/01/30 12:22:45;;;;;;;5.30;2.03;;;10.30;99.90;;;;;;4924932;29;20443;-76
2021/01/30 12:25:11;;;;;;;7.73;2.40;;;10.20;99.90;;;;;;4925619;29;20459;-75
2021/01/30 12:28:29;;;;;;;7.17;2.47;;;10.20;99.90;;;;;;4912380;29;20475;-79
2021/01/30 12:31:16;;;;;;;6.90;2.37;;;10.20;99.90;;;;;;4901415;29;20525;-78
2021/01/30 12:33:42;;;;;;;5.97;2.00;;;10.20;99.90;;;;;;4925360;29;21015;-78
2021/01/30 12:36:08;;;;;;;8.60;2.13;;;10.10;99.90;;;;;;4925293;29;20442;-78
2021/01/30 12:38:34;;;;;;;9.13;2.97;;;10.00;99.90;;;;;;4922223;29;20206;-78
2021/01/30 12:41:31;;;;;;;6.50;2.10;;;10.00;99.90;;;;;;4914090;29;20436;-87
2021/01/30 12:43:57;;;;;;;13.67;2.00;;;10.10;99.90;;;;;;4906109;29;21092;-82
2021/01/30 12:46:58;;;;;;;4.57;1.80;;;10.00;99.90;;;;;;4908141;29;20474;-87
2021/01/30 12:49:37;;;;;;;3.80;1.97;;;9.90;99.90;;;;;;4925475;29;20207;-85
2021/01/30 12:52:12;;;;;;;3.60;2.50;;;9.90;99.90;;;;;;4910371;29;21098;-87
2021/01/30 12:54:55;;;;;;;5.00;2.53;;;9.80;99.90;;;;;;4928628;28;20436;-87
2021/01/30 12:57:33;;;;;;;4.00;1.77;;;9.60;99.90;;;;;;4897511;29;20454;-87
2021/01/30 13:00:22;;;;;;;3.23;1.70;;;9.40;99.90;;;;;;4905215;29;20432;-87
2021/01/30 13:02:50;;;;;;;4.17;1.80;;;9.40;99.90;;;;;;4905958;29;20519;-87
2021/01/30 13:11:30;;;;;;;7.33;1.70;;;9.40;99.90;;;;;;4907907;29;20442;-88
2021/01/30 13:14:04;;;;;;;3.17;1.40;;;9.40;99.90;;;;;;4909321;29;20504;-85
2021/01/30 13:16:30;;;;;;;4.43;2.00;;;9.40;99.90;;;;;;4927275;29;20757;-87
2021/01/30 13:18:56;;;;;;;13.33;2.50;;;9.30;99.90;;;;;;4917677;29;20448;-85
2021/01/30 13:21:32;;;;;;;3.53;2.30;;;9.20;99.90;;;;;;4920511;29;20186;-87
2021/01/30 13:24:02;;;;;;;5.10;1.93;;;9.20;99.90;;;;;;4929130;29;20218;-89
2021/01/30 13:26:35;;;;;;;5.60;2.00;;;9.10;99.90;;;;;;4930328;29;20428;-86
2021/01/30 13:29:04;;;;;;;5.80;2.17;;;8.90;99.90;;;;;;4935755;29;20463;-87
2021/01/30 13:31:29;;;;;;;5.63;1.93;;;8.90;99.90;;;;;;4932733;28;20428;-87
2021/01/30 13:33:58;;;;;;;6.33;2.20;;;8.90;99.90;;;;;;4916125;29;20451;-87
2021/01/30 13:36:30;;;;;;;5.63;2.13;;;8.90;99.90;;;;;;4903400;29;20211;-86
2021/01/30 13:38:58;;;;;;;3.03;2.00;;;8.80;99.90;;;;;;4906129;29;20448;-86
2021/01/30 13:41:27;;;;;;;3.20;2.10;;;8.80;99.90;;;;;;4918060;29;20547;-86
2021/01/30 13:43:56;;;;;;;5.20;2.30;;;8.80;99.90;;;;;;4925070;29;21034;-87